Flight Track Log - Related Links

Times and Time Zones

All times are in EDT time to prevent confusion due to time zone crossing. See the SWA4225 flight status page for this flight to view local times or setup timezone preferences in your user account.

Time Position Orientation Groundspeed Altitude Reporting Facility
EDT Latitude Longitude Course Direction KTS MPH feet Rate Location/Type
Sun 09:14:25 PM 41.7500 -87.8333 264° West 210 242 3,000  Level Chicago TRACON
Sun 09:15:26 PM 41.7500 -87.9333 270° West 251 289 3,100 1,537 Climbing Chicago TRACON
Sun 09:16:26 PM 41.7500 -88.0167 270° West 258 297 6,100 2,908 Climbing Chicago TRACON
Sun 09:17:36 PM 41.7517 -88.1292 271° West 270 311 9,400 2,636 Climbing Chicago Center
Sun 09:18:38 PM 41.7731 -88.2322 286° West 293 337 11,900 1,500 Climbing Chicago Center
Sun 09:19:00 PM 41.7257 -88.4915 264° West  Level Estimated
Sun 09:19:40 PM 41.7833 -88.3642 276° West 307 353 12,500  Level Chicago Center
Sun 09:20:42 PM 41.7925 -88.4897 276° West 331 381 14,700 2,419 Climbing Chicago Center
Sun 09:21:44 PM 41.8019 -88.6261 275° West 362 417 17,500 2,537 Climbing Chicago Center
Sun 09:22:45 PM 41.8131 -88.7639 276° West 374 430 19,900 2,195 Climbing Chicago Center
Sun 09:23:47 PM 41.8231 -88.9097 275° West 392 451 22,000 1,968 Climbing Chicago Center
Sun 09:25:00 PM 41.8260 -89.0966 285° West  Level FlightAware Approximate
Sun 09:25:51 PM 41.8519 -89.2469 285° West 424 488 26,000  Level Chicago Center
Sun 09:26:53 PM 41.8461 -89.4061 267° West 432 497 27,800 2,129 Climbing Chicago Center
Sun 09:27:55 PM 41.8342 -89.5639 264° West 430 495 30,400 2,032 Climbing Chicago Center
Sun 09:28:57 PM 41.8219 -89.7164 264° West 417 480 32,000 1,317 Climbing Chicago Center
Sun 09:29:58 PM 41.8094 -89.8736 264° West 426 490 33,100 1,220 Climbing Chicago Center
Sun 09:31:00 PM 41.7975 -90.0411 265° West 430 495 34,500 1,403 Climbing Chicago Center
Sun 09:32:02 PM 41.7850 -90.2022 264° West 435 501 36,000 726 Climbing Chicago Center
Sun 09:33:04 PM 41.7678 -90.3956 263° West 438 504 36,000  Level Chicago Center
Sun 09:34:06 PM 41.7556 -90.5506 264° West 428 493 36,000  Level Chicago Center
Sun 09:35:07 PM 41.7408 -90.7047 263° West 421 484 36,000  Level Chicago Center
Sun 09:36:09 PM 41.7275 -90.8586 263° West 421 484 36,000  Level Chicago Center
Sun 09:37:11 PM 41.7142 -91.0117 263° West 418 481 36,000 629 Level Chicago Center
Sun 09:38:13 PM 41.7003 -91.1639 263° West 416 479 37,300 968 Climbing Chicago Center
Sun 09:39:15 PM 41.6839 -91.3469 263° West 414 476 38,000 341 Climbing Chicago Center
Sun 09:40:16 PM 41.6692 -91.4997 263° West 417 480 38,000  Level Chicago Center
Sun 09:41:18 PM 41.6553 -91.6547 263° West 421 484 38,000  Level Chicago Center
Sun 09:42:20 PM 41.6403 -91.8097 263° West 422 486 38,000  Level Chicago Center
Sun 09:43:22 PM 41.6250 -91.9625 262° West 419 482 38,000  Level Chicago Center
Sun 09:44:24 PM 41.6108 -92.1183 263° West 423 487 38,000  Level Chicago Center
Sun 09:45:25 PM 41.5919 -92.3019 262° West 420 483 38,000  Level Chicago Center
Sun 09:46:27 PM 41.5769 -92.4542 263° West 418 481 38,000  Level Chicago Center
Sun 09:47:29 PM 41.5614 -92.6081 262° West 421 484 38,000  Level Chicago Center
Sun 09:48:20 PM 41.5469 -92.7475 262° West 421 484 38,000  Level Minneapolis Center
Sun 09:49:22 PM 41.5300 -92.9008 262° West 422 486 38,000  Level Minneapolis Center
Sun 09:50:23 PM 41.5144 -93.0536 262° West 422 486 38,000  Level Minneapolis Center
Sun 09:51:25 PM 41.4978 -93.2061 262° West 421 484 38,000  Level Minneapolis Center
Sun 09:52:26 PM 41.4775 -93.3889 262° West 421 484 38,000  Level Minneapolis Center
Sun 09:53:28 PM 41.4636 -93.5106 261° West 421 484 38,000  Level Minneapolis Center
Sun 09:54:29 PM 41.4456 -93.6853 262° West 407 468 38,000  Level Minneapolis Center
Sun 09:55:31 PM 41.4289 -93.8358 262° West 413 475 38,000  Level Minneapolis Center
Sun 09:56:32 PM 41.4128 -93.9864 262° West 415 478 38,000  Level Minneapolis Center
Sun 09:57:34 PM 41.3931 -94.1400 260° West 421 484 38,000  Level Minneapolis Center
Sun 09:58:35 PM 41.3700 -94.3231 261° West 422 486 38,000  Level Minneapolis Center
Sun 09:59:37 PM 41.3511 -94.4756 261° West 421 484 38,000  Level Minneapolis Center
Sun 10:00:38 PM 41.3342 -94.6319 262° West 424 488 38,000  Level Minneapolis Center
Sun 10:01:40 PM 41.3164 -94.7836 261° West 420 483 38,000  Level Minneapolis Center
Sun 10:02:41 PM 41.2972 -94.9339 260° West 415 478 38,000  Level Minneapolis Center
Sun 10:03:43 PM 41.2789 -95.0847 261° West 414 476 38,000  Level Minneapolis Center
Sun 10:04:44 PM 41.2589 -95.2361 260° West 416 479 38,000  Level Minneapolis Center
Sun 10:05:46 PM 41.2392 -95.3872 260° West 414 476 38,000  Level Minneapolis Center
Sun 10:06:47 PM 41.2183 -95.5403 260° West 419 482 38,000  Level Minneapolis Center
Sun 10:07:48 PM 41.1981 -95.6992 260° West 415 478 38,000  Level Minneapolis Center
Sun 10:08:50 PM 41.1789 -95.8514 261° West 417 480 38,000  Level Minneapolis Center
Sun 10:09:51 PM 41.1539 -96.0306 260° West 412 474 38,000  Level Minneapolis Center
Sun 10:10:53 PM 41.1336 -96.1775 260° West 407 468 38,000  Level Minneapolis Center
Sun 10:11:54 PM 41.1153 -96.3269 261° West 408 470 38,000  Level Minneapolis Center
Sun 10:12:55 PM 41.0922 -96.4781 259° West 412 474 38,000  Level Minneapolis Center
Sun 10:13:57 PM 41.0717 -96.6275 260° West 413 475 38,000  Level Minneapolis Center
Sun 10:14:58 PM 41.0500 -96.7789 259° West 414 476 38,000  Level Minneapolis Center
Sun 10:16:00 PM 41.0283 -96.9311 259° West 417 480 38,000  Level Minneapolis Center
Sun 10:17:01 PM 41.0014 -97.0831 257° West 420 483 38,000  Level Minneapolis Center
Sun 10:18:03 PM 40.9650 -97.2306 252° West 422 486 38,000  Level Minneapolis Center
Sun 10:19:04 PM 40.9228 -97.4039 252° West 419 482 38,000  Level Minneapolis Center
Sun 10:20:06 PM 40.8875 -97.5483 252° West 416 479 38,000  Level Minneapolis Center
Sun 10:21:07 PM 40.8511 -97.6936 252° West 415 478 38,000  Level Minneapolis Center
Sun 10:22:08 PM 40.8131 -97.8386 251° West 416 479 38,000  Level Minneapolis Center
Sun 10:23:09 PM 40.7756 -97.9833 251° West 416 479 38,000  Level Minneapolis Center
Sun 10:24:11 PM 40.7386 -98.1297 252° West 417 480 38,000  Level Minneapolis Center
Sun 10:25:12 PM 40.7006 -98.2767 251° West 421 484 38,000  Level Minneapolis Center
Sun 10:26:13 PM 40.6636 -98.4231 252° West 419 482 38,000  Level Minneapolis Center
Sun 10:27:15 PM 40.6283 -98.5681 252° West 415 478 38,000  Level Minneapolis Center
Sun 10:28:16 PM 40.5936 -98.7147 253° West 416 479 38,000  Level Minneapolis Center
Sun 10:29:17 PM 40.5594 -98.8611 253° West 417 480 38,000  Level Minneapolis Center
Sun 10:30:19 PM 40.5258 -99.0053 253° West 412 474 38,000  Level Minneapolis Center
Sun 10:31:20 PM 40.4928 -99.1489 253° West 409 471 38,000  Level Minneapolis Center
Sun 10:32:21 PM 40.4556 -99.3211 254° West 408 470 38,000  Level Minneapolis Center
Sun 10:33:13 PM 40.4278 -99.4328 252° West 403 464 38,000  Level Denver Center
Sun 10:34:15 PM 40.3842 -99.5700 247° West 405 466 38,000  Level Denver Center
Sun 10:35:16 PM 40.3436 -99.7097 249° West 408 470 38,000  Level Denver Center
Sun 10:36:18 PM 40.3025 -99.8478 249° West 408 470 38,000  Level Denver Center
Sun 10:37:19 PM 40.2592 -100.0000 250° West 411 473 38,000  Level Denver Center
Sun 10:38:21 PM 40.2208 -100.1342 250° West 412 474 38,000  Level Denver Center
Sun 10:39:23 PM 40.1758 -100.2917 250° West 413 475 38,000  Level Denver Center
Sun 10:40:24 PM 40.1269 -100.4206 244° Southwest 412 474 38,000  Level Denver Center
Sun 10:41:26 PM 40.0700 -100.5714 244° Southwest 413 475 38,000  Level Denver Center
Sun 10:42:27 PM 40.0211 -100.7014 244° Southwest 415 478 38,000  Level Denver Center
Sun 10:43:29 PM 39.9719 -100.8317 244° Southwest 417 480 38,000  Level Denver Center
Sun 10:44:30 PM 39.9122 -100.9764 242° Southwest 408 470 38,000  Level Denver Center
Sun 10:45:32 PM 39.8628 -101.0997 242° Southwest 402 463 38,000  Level Denver Center
Sun 10:46:33 PM 39.8033 -101.2411 241° Southwest 400 460 38,000  Level Denver Center
Sun 10:47:35 PM 39.7575 -101.3692 245° Southwest 404 465 38,000  Level Denver Center
Sun 10:48:36 PM 39.7100 -101.4964 244° Southwest 407 468 38,000  Level Denver Center
Sun 10:49:37 PM 39.6594 -101.6461 246° West 406 467 38,000  Level Denver Center
Sun 10:50:39 PM 39.6189 -101.7753 248° West 404 465 38,000  Level Denver Center
Sun 10:51:40 PM 39.5650 -101.9272 245° Southwest 412 474 38,000  Level Denver Center
Sun 10:52:42 PM 39.5214 -102.0586 247° West 414 476 38,000  Level Denver Center
Sun 10:53:43 PM 39.4958 -102.2022 257° West 423 487 38,000  Level Denver Center
Sun 10:54:45 PM 39.4681 -102.3686 258° West 426 490 38,000  Level Denver Center
Sun 10:55:46 PM 39.4464 -102.5119 259° West 428 493 38,000  Level Denver Center
Sun 10:56:48 PM 39.4269 -102.6622 261° West 426 490 38,000  Level Denver Center
Sun 10:57:49 PM 39.4056 -102.8111 260° West 422 486 38,000  Level Denver Center
Sun 10:58:51 PM 39.3856 -102.9617 260° West 424 488 38,000  Level Denver Center
Sun 10:59:52 PM 39.3603 -103.1453 260° West 432 497 38,000  Level Denver Center
Sun 11:00:54 PM 39.3394 -103.2975 260° West 432 497 38,000  Level Denver Center
Sun 11:01:55 PM 39.3175 -103.4528 260° West 437 503 38,000  Level Denver Center
Sun 11:02:56 PM 39.2936 -103.6078 259° West 442 509 38,000  Level Denver Center
Sun 11:03:58 PM 39.2708 -103.7647 259° West 444 511 38,000  Level Denver Center
Sun 11:04:59 PM 39.2500 -103.9186 260° West 437 503 38,000  Level Denver Center
Sun 11:06:00 PM 39.2267 -104.0681 259° West 428 493 38,000  Level Denver Center
Sun 11:07:02 PM 39.2042 -104.2206 259° West 431 496 38,000  Level Denver Center
Sun 11:08:03 PM 39.1814 -104.3692 259° West 423 487 38,000  Level Denver Center
Sun 11:09:04 PM 39.1594 -104.5192 259° West 423 487 38,000  Level Denver Center
Sun 11:10:06 PM 39.1364 -104.6683 259° West 421 484 38,000  Level Denver Center
Sun 11:11:07 PM 39.1133 -104.8161 259° West 420 483 38,000  Level Denver Center
Sun 11:12:08 PM 39.0864 -104.9919 259° West 417 480 38,000  Level Denver Center
Sun 11:13:10 PM 39.0636 -105.1381 259° West 416 479 38,000  Level Denver Center
Sun 11:14:23 PM 39.0406 -105.2864 259° West 422 486 38,000  Level Denver Center
Sun 11:15:25 PM 39.0119 -105.4642 258° West 423 487 38,000  Level Denver Center
Sun 11:16:26 PM 38.9889 -105.6111 259° West 421 484 38,000  Level Denver Center
Sun 11:17:27 PM 38.9639 -105.7578 258° West 421 484 38,000  Level Denver Center
Sun 11:18:29 PM 38.9394 -105.9047 258° West 421 484 38,000  Level Denver Center
Sun 11:19:30 PM 38.9158 -106.0519 258° West 422 486 38,000  Level Denver Center
Sun 11:20:31 PM 38.8883 -106.2131 258° West 420 483 38,000  Level Denver Center
Sun 11:21:33 PM 38.8639 -106.3572 258° West 416 479 38,000  Level Denver Center
Sun 11:22:34 PM 38.8461 -106.5056 261° West 421 484 38,000  Level Denver Center
Sun 11:23:35 PM 38.8458 -106.6611 270° West 424 488 38,000  Level Denver Center
Sun 11:24:37 PM 38.8456 -106.8092 270° West 424 488 38,000  Level Denver Center
Sun 11:25:38 PM 38.8453 -106.9625 270° West 427 491 38,000  Level Denver Center
Sun 11:26:39 PM 38.8442 -107.1114 269° West 417 480 38,000  Level Denver Center
Sun 11:27:41 PM 38.8442 -107.2836 270° West 418 481 38,000  Level Denver Center
Sun 11:28:42 PM 38.8472 -107.4275 272° West 421 484 38,000  Level Denver Center
Sun 11:29:43 PM 38.8500 -107.5689 271° West 416 479 38,000  Level Denver Center
Sun 11:30:45 PM 38.8536 -107.7347 272° West 416 479 38,000  Level Denver Center
Sun 11:31:46 PM 38.8536 -107.8747 270° West 412 474 38,000  Level Denver Center
Sun 11:32:47 PM 38.8153 -108.0275 252° West 403 464 38,000  Level Denver Center
Sun 11:33:49 PM 38.7828 -108.1639 253° West 413 475 38,000  Level Denver Center
Sun 11:34:50 PM 38.7503 -108.2978 253° West 412 474 38,000  Level Denver Center
Sun 11:35:51 PM 38.7114 -108.4561 253° West 416 479 38,000  Level Denver Center
Sun 11:36:52 PM 38.6789 -108.5906 253° West 415 478 38,000  Level Denver Center
Sun 11:37:54 PM 38.6400 -108.7469 252° West 412 474 38,000  Level Denver Center
Sun 11:38:55 PM 38.6067 -108.8817 252° West 415 478 38,000  Level Denver Center
Sun 11:39:56 PM 38.5736 -109.0150 252° West 411 473 38,000  Level Denver Center
Sun 11:40:57 PM 38.5339 -109.1703 252° West 411 473 38,000  Level Denver Center
Sun 11:41:59 PM 38.5000 -109.3044 252° West 414 476 38,000  Level Denver Center
Sun 11:43:00 PM 38.4658 -109.4389 252° West 414 476 38,000  Level Denver Center
Sun 11:44:01 PM 38.4256 -109.5967 252° West 418 481 38,000  Level Denver Center
Sun 11:45:02 PM 38.3906 -109.7297 251° West 415 478 38,000  Level Denver Center
Sun 11:46:04 PM 38.3558 -109.8636 252° West 414 476 38,000  Level Denver Center
Sun 11:47:05 PM 38.3147 -110.0186 251° West 412 474 38,000  Level Denver Center
Sun 11:48:10 PM 38.2622 -110.1678 246° West 413 475 38,000 -425 Level Salt Lake Center
Sun 11:49:12 PM 38.2122 -110.2917 243° Southwest 411 473 37,100 -915 Descending Salt Lake Center
Sun 11:50:08 PM 38.1594 -110.4167 242° Southwest 419 482 36,200 -984 Descending Denver Center
Sun 11:51:14 PM 38.0994 -110.5644 243° Southwest 421 484 35,100 -945 Descending Salt Lake Center
Sun 11:52:15 PM 38.0461 -110.6908 242° Southwest 423 487 34,200 -966 Descending Salt Lake Center
Sun 11:53:12 PM 37.9939 -110.8197 243° Southwest 429 494 33,200 -1,033 Descending Denver Center
Sun 11:54:17 PM 37.9303 -110.9786 243° Southwest 431 496 32,100 -567 Descending Salt Lake Center
Sun 11:55:19 PM 37.8756 -111.1092 242° Southwest 424 488 32,000 -51 Descending Salt Lake Center
Sun 11:56:15 PM 37.8300 -111.2131 241° Southwest 423 487 32,000  Level Denver Center
Sun 11:57:16 PM 37.7769 -111.3442 243° Southwest 420 483 32,000  Level Denver Center
Sun 11:58:18 PM 37.7125 -111.4939 241° Southwest 405 466 32,000  Level Denver Center
Sun 11:59:19 PM 37.6606 -111.6192 242° Southwest 403 464 32,000  Level Denver Center
Mon 12:00:20 AM 37.6083 -111.7425 242° Southwest 400 460 32,000  Level Denver Center
Mon 12:01:21 AM 37.5553 -111.8644 241° Southwest 397 457 32,000  Level Denver Center
Mon 12:02:22 AM 37.5039 -111.9889 243° Southwest 399 459 32,000  Level Denver Center
Mon 12:03:16 AM 37.4583 -112.0881 240° Southwest 402 463 32,000  Level Los Angeles Center
Mon 12:04:18 AM 37.4056 -112.2125 242° Southwest 402 463 32,000  Level Los Angeles Center
Mon 12:05:19 AM 37.3414 -112.3614 242° Southwest 402 463 32,000  Level Los Angeles Center
Mon 12:06:21 AM 37.2861 -112.4858 241° Southwest 404 465 32,000  Level Los Angeles Center
Mon 12:07:22 AM 37.2322 -112.6103 241° Southwest 404 465 32,000 -537 Level Los Angeles Center
Mon 12:08:24 AM 37.1786 -112.7333 241° Southwest 401 461 30,900 -1,024 Descending Los Angeles Center
Mon 12:09:25 AM 37.1269 -112.8517 241° Southwest 390 449 29,900 -1,033 Descending Los Angeles Center
Mon 12:10:26 AM 37.0747 -112.9689 241° Southwest 385 443 28,800 -1,024 Descending Los Angeles Center
Mon 12:11:28 AM 37.0253 -113.0828 241° Southwest 376 433 27,800 -976 Descending Los Angeles Center
Mon 12:12:29 AM 36.9736 -113.1956 240° Southwest 373 429 26,800 -934 Descending Los Angeles Center
Mon 12:13:30 AM 36.9236 -113.3122 242° Southwest 378 435 25,900 -871 Descending Los Angeles Center
Mon 12:14:33 AM 36.8694 -113.4306 240° Southwest 389 448 25,000 -844 Descending Los Angeles Center
Mon 12:15:45 AM 36.8189 -113.5486 242° Southwest 386 444 24,000 -1,119 Descending Los Angeles Center
Mon 12:16:47 AM 36.7481 -113.7036 240° Southwest 371 427 22,500 -1,220 Descending Los Angeles Center
Mon 12:17:48 AM 36.6983 -113.8122 240° Southwest 364 419 21,500 -984 Descending Los Angeles Center
Mon 12:18:49 AM 36.6492 -113.9197 240° Southwest 360 414 20,500 -984 Descending Los Angeles Center
Mon 12:19:50 AM 36.6008 -114.0294 241° Southwest 360 414 19,500 -1,317 Descending Los Angeles Center
Mon 12:20:52 AM 36.5531 -114.1336 240° Southwest 351 404 17,800 -1,878 Descending Los Angeles Center
Mon 12:21:45 AM 36.5094 -114.2317 241° Southwest 354 407 15,900 -2,100 Descending Los Angeles Center
Mon 12:22:52 AM 36.4556 -114.3492 240° Southwest 341 392 13,600 -1,869 Descending Los Angeles Center
Mon 12:23:47 AM 36.4128 -114.4389 239° Southwest 334 384 12,100 -828 Descending Los Angeles Center
Mon 12:24:48 AM 36.3667 -114.5322 238° Southwest 322 371 12,000 -891 Descending Los Angeles Center
Mon 12:25:55 AM 36.3064 -114.6408 235° Southwest 332 382 10,200 -1,266 Descending Los Angeles Center
Mon 12:26:56 AM 36.2603 -114.7258 236° Southwest 295 339 9,300 -836 Descending Los Angeles Center
Mon 12:27:57 AM 36.2200 -114.7981 235° Southwest 250 288 8,500 -843 Descending Los Angeles Center
Mon 12:28:57 AM 36.1844 -114.8633 236° Southwest 236 272 7,600 -942 Descending Los Angeles Center
Mon 12:29:58 AM 36.1486 -114.9258 235° Southwest 223 257 6,600 -1,082 Descending Los Angeles Center
Mon 12:30:59 AM 36.1339 -114.9867 253° West 188 216 5,400 -1,180 Descending Los Angeles Center
Mon 12:32:00 AM 36.1378 -115.0547 274° West 180 207 4,200 -1,034 Descending Los Angeles Center
Mon 12:32:55 AM 36.1356 -115.1033 267° West 154 177 3,400 -835 Descending Los Angeles Center
Mon 12:33:55 AM 36.1189 -115.1461 244° Southwest 134 154 2,600 -578 Descending Los Angeles Center
Mon 12:35:10 AM 36.0917 -115.1558 196° South 143 165 2,100 -400 Descending Los Angeles Center

Login

Don't have an account? Register now (free) for customized features, flight alerts, and more!